createdAt,value
2019-05-20T00:01:45.381Z,23.70
2019-05-20T00:04:13.795Z,23.23
2019-05-20T00:06:42.209Z,21.70
2019-05-20T00:09:10.625Z,21.70
2019-05-20T00:11:39.033Z,20.47
2019-05-20T00:14:07.518Z,18.43
2019-05-20T00:16:36.225Z,19.00
2019-05-20T00:19:04.651Z,18.60
2019-05-20T00:21:33.145Z,16.90
2019-05-20T00:24:01.565Z,23.00
2019-05-20T00:26:29.979Z,21.57
2019-05-20T00:28:58.730Z,19.83
2019-05-20T00:31:27.149Z,19.77
2019-05-20T00:33:55.562Z,22.77
2019-05-20T00:36:23.968Z,19.87
2019-05-20T00:39:10.607Z,21.63
2019-05-20T00:41:38.997Z,20.10
2019-05-20T00:44:07.445Z,20.63
2019-05-20T00:46:35.838Z,19.57
2019-05-20T00:49:04.331Z,19.33
2019-05-20T00:51:32.748Z,24.77
2019-05-20T00:54:01.183Z,22.47
2019-05-20T00:56:29.586Z,20.83
2019-05-20T00:58:58.008Z,20.77
2019-05-20T01:01:26.451Z,19.03
2019-05-20T01:03:54.878Z,22.73
2019-05-20T01:06:23.300Z,21.77
2019-05-20T01:08:51.693Z,24.60
2019-05-20T01:11:20.187Z,24.97
2019-05-20T01:13:48.891Z,24.60
2019-05-20T01:16:17.310Z,23.13
2019-05-20T01:18:45.736Z,20.00
2019-05-20T01:21:14.137Z,20.00
2019-05-20T01:23:42.557Z,24.63
2019-05-20T01:26:10.961Z,24.93
2019-05-20T01:28:39.355Z,23.70
2019-05-20T01:31:07.803Z,24.40
2019-05-20T01:33:36.205Z,25.73
2019-05-20T01:36:05.743Z,23.63
2019-05-20T01:38:34.518Z,23.10
2019-05-20T01:41:02.926Z,22.83
2019-05-20T01:43:31.367Z,22.97
2019-05-20T01:45:59.785Z,23.43
2019-05-20T01:48:28.188Z,23.03
2019-05-20T01:50:56.622Z,23.43
2019-05-20T01:53:25.025Z,23.07
2019-05-20T01:55:53.435Z,24.13
2019-05-20T01:58:21.862Z,22.83
2019-05-20T02:00:50.268Z,24.73
2019-05-20T02:03:31.022Z,22.93
2019-05-20T02:05:48.970Z,22.80
2019-05-20T02:08:17.621Z,20.53
2019-05-20T02:10:46.056Z,20.77
2019-05-20T02:13:14.459Z,22.87
2019-05-20T02:15:50.740Z,21.93
2019-05-20T02:18:19.419Z,21.87
2019-05-20T02:20:47.841Z,22.10
2019-05-20T02:23:16.833Z,22.10
2019-05-20T02:25:47.355Z,20.23
2019-05-20T02:28:15.817Z,22.17
2019-05-20T02:30:44.318Z,23.90
2019-05-20T02:33:13.070Z,22.30
2019-05-20T02:35:41.756Z,23.47
2019-05-20T02:38:10.157Z,23.07
2019-05-20T02:40:38.602Z,21.80
2019-05-20T02:43:07.019Z,21.67
2019-05-20T02:45:35.447Z,21.73
2019-05-20T02:48:03.914Z,21.20
2019-05-20T02:50:32.337Z,21.73
2019-05-20T02:53:00.738Z,21.67
2019-05-20T02:55:29.140Z,21.87
2019-05-20T02:57:57.582Z,20.27
2019-05-20T03:00:25.997Z,22.80
2019-05-20T03:02:54.431Z,23.17
2019-05-20T03:05:22.846Z,22.10
2019-05-20T03:07:51.269Z,23.23
2019-05-20T03:10:19.705Z,22.60
2019-05-20T03:12:48.117Z,19.73
2019-05-20T03:15:16.604Z,26.47
2019-05-20T03:17:45.035Z,24.03
2019-05-20T03:20:13.577Z,21.63
2019-05-20T03:22:42.151Z,20.83
2019-05-20T03:25:10.797Z,23.47
2019-05-20T03:27:39.286Z,20.73
2019-05-20T03:30:09.435Z,21.42
2019-05-20T03:32:37.866Z,23.63
2019-05-20T03:35:07.661Z,22.83
2019-05-20T03:37:36.099Z,24.80
2019-05-20T03:40:07.706Z,24.80
2019-05-20T03:42:36.197Z,23.77
2019-05-20T03:45:05.548Z,23.73
2019-05-20T03:47:33.988Z,23.63
2019-05-20T03:50:02.361Z,24.37
2019-05-20T03:52:30.803Z,22.67
2019-05-20T03:54:59.208Z,21.40
2019-05-20T03:57:27.619Z,23.30
2019-05-20T03:59:56.026Z,19.63
2019-05-20T04:02:24.453Z,21.73
2019-05-20T04:05:02.020Z,24.13
2019-05-20T04:07:23.274Z,26.13
2019-05-20T04:09:51.911Z,22.87
2019-05-20T04:12:20.594Z,25.13
2019-05-20T04:14:49.021Z,22.97
2019-05-20T04:17:17.424Z,24.57
2019-05-20T04:19:45.858Z,24.27
2019-05-20T04:22:14.258Z,24.97
2019-05-20T04:24:42.674Z,23.17
2019-05-20T04:27:11.101Z,23.30
2019-05-20T04:29:39.511Z,22.50
2019-05-20T04:32:07.913Z,21.47
2019-05-20T04:34:36.410Z,24.67
2019-05-20T04:37:04.870Z,22.77
2019-05-20T04:39:33.298Z,22.47
2019-05-20T04:42:05.977Z,22.00
2019-05-20T04:44:31.847Z,29.60
2019-05-20T04:47:00.266Z,27.85
2019-05-20T04:49:28.698Z,27.37
2019-05-20T04:51:57.087Z,28.73
2019-05-20T04:54:25.540Z,26.33
2019-05-20T04:56:53.915Z,29.07
2019-05-20T04:59:22.588Z,25.83
2019-05-20T05:01:51.014Z,26.30
2019-05-20T05:04:19.404Z,26.23
2019-05-20T05:06:47.840Z,27.00
2019-05-20T05:09:16.296Z,28.33
2019-05-20T05:11:44.695Z,29.57
2019-05-20T05:14:13.177Z,28.73
2019-05-20T05:16:41.618Z,30.17
2019-05-20T05:19:10.028Z,29.70
2019-05-20T05:21:38.518Z,29.40
2019-05-20T05:24:06.942Z,30.23
2019-05-20T05:26:35.422Z,30.83
2019-05-20T05:29:04.202Z,28.33
2019-05-20T05:31:32.652Z,30.43
2019-05-20T05:34:01.053Z,29.10
2019-05-20T05:36:29.458Z,28.63
2019-05-20T05:38:57.878Z,27.20
2019-05-20T05:41:26.365Z,29.50
2019-05-20T05:43:54.762Z,27.90
2019-05-20T05:46:23.199Z,30.20
2019-05-20T05:48:51.611Z,28.07
2019-05-20T05:51:21.201Z,24.87
2019-05-20T05:53:49.593Z,27.40
2019-05-20T05:56:18.031Z,25.13
2019-05-20T05:58:46.535Z,27.40
2019-05-20T06:01:14.944Z,25.40
2019-05-20T06:03:43.341Z,26.40
2019-05-20T06:06:13.325Z,25.03
2019-05-20T06:08:42.263Z,25.73
2019-05-20T06:11:10.690Z,26.30
2019-05-20T06:13:39.090Z,25.07
2019-05-20T06:16:07.510Z,22.30
2019-05-20T06:18:35.912Z,22.13
2019-05-20T06:21:04.699Z,23.67
2019-05-20T06:23:33.335Z,23.40
2019-05-20T06:26:01.785Z,25.07
2019-05-20T06:28:30.213Z,24.30
2019-05-20T06:30:58.651Z,22.93
2019-05-20T06:33:27.205Z,23.60
2019-05-20T06:35:55.615Z,21.93
2019-05-20T06:38:35.339Z,22.73
2019-05-20T06:41:05.624Z,21.80
2019-05-20T06:43:34.097Z,21.57
2019-05-20T06:46:02.526Z,19.53
2019-05-20T06:48:30.917Z,24.43
2019-05-20T06:50:59.348Z,22.77
2019-05-20T06:53:28.126Z,23.27
2019-05-20T06:55:56.560Z,23.10
2019-05-20T06:58:24.958Z,34.83
2019-05-20T07:00:53.393Z,22.80
2019-05-20T07:03:21.844Z,22.23
2019-05-20T07:05:50.252Z,20.80
2019-05-20T07:08:19.227Z,22.40
2019-05-20T07:10:48.413Z,19.53
2019-05-20T07:13:17.487Z,20.57
2019-05-20T07:15:46.502Z,20.27
2019-05-20T07:18:14.902Z,20.37
2019-05-20T07:20:44.136Z,24.37
2019-05-20T07:23:12.726Z,21.83
2019-05-20T07:25:41.189Z,20.23
2019-05-20T07:28:09.798Z,21.77
2019-05-20T07:30:38.557Z,20.07
2019-05-20T07:33:08.120Z,19.70
2019-05-20T07:35:37.402Z,20.37
2019-05-20T07:38:06.832Z,21.30
2019-05-20T07:40:36.289Z,19.40
2019-05-20T07:43:05.505Z,20.47
2019-05-20T07:45:35.327Z,22.37
2019-05-20T07:48:04.779Z,20.50
2019-05-20T07:50:36.083Z,22.20
2019-05-20T07:53:06.418Z,21.03
2019-05-20T07:55:37.894Z,20.23
2019-05-20T07:58:08.466Z,19.00
2019-05-20T08:00:37.277Z,19.37
2019-05-20T08:05:47.353Z,19.13
2019-05-20T08:08:15.840Z,19.33
2019-05-20T08:10:44.251Z,18.50
2019-05-20T08:13:12.748Z,18.90
2019-05-20T08:15:41.158Z,19.77
2019-05-20T08:18:09.816Z,19.00
2019-05-20T08:20:38.271Z,19.40
2019-05-20T08:23:06.676Z,19.73
2019-05-20T08:25:35.377Z,17.40
2019-05-20T08:28:03.851Z,19.65
2019-05-20T08:30:37.265Z,18.90
2019-05-20T08:34:56.354Z,18.63
2019-05-20T08:37:24.752Z,18.47
2019-05-20T08:39:53.177Z,17.10
2019-05-20T08:42:21.581Z,19.57
2019-05-20T08:44:49.996Z,24.83
2019-05-20T08:47:18.413Z,18.60
2019-05-20T08:49:47.079Z,17.20
2019-05-20T08:52:15.664Z,19.30
2019-05-20T08:54:46.769Z,16.70
2019-05-20T08:57:15.193Z,19.33
2019-05-20T08:59:43.586Z,23.00
2019-05-20T09:02:11.988Z,21.27
2019-05-20T09:04:40.406Z,17.27
2019-05-20T09:07:08.792Z,17.87
2019-05-20T09:09:37.272Z,17.40
2019-05-20T09:12:05.911Z,16.60
2019-05-20T09:14:34.308Z,16.53
2019-05-20T09:17:03.036Z,16.03
2019-05-20T09:19:31.427Z,17.10
2019-05-20T09:21:59.833Z,17.93
2019-05-20T09:24:28.259Z,16.23
2019-05-20T09:26:56.659Z,16.73
2019-05-20T09:29:25.424Z,16.90
2019-05-20T09:31:54.167Z,16.33
2019-05-20T09:34:22.865Z,16.83
2019-05-20T09:36:51.333Z,16.70
2019-05-20T09:39:19.736Z,15.83
2019-05-20T09:41:48.167Z,16.87
2019-05-20T09:44:16.562Z,17.77
2019-05-20T09:46:45.654Z,17.73
2019-05-20T09:49:14.074Z,16.27
2019-05-20T09:51:42.566Z,15.97
2019-05-20T09:54:10.940Z,15.70
2019-05-20T09:56:39.340Z,15.10
2019-05-20T09:59:07.772Z,16.87
2019-05-20T10:01:39.861Z,16.27
2019-05-20T10:04:06.357Z,14.60
2019-05-20T10:06:34.779Z,15.23
2019-05-20T10:09:03.857Z,16.27
2019-05-20T10:11:32.276Z,15.53
2019-05-20T10:14:00.676Z,17.70
2019-05-20T10:16:29.092Z,15.13
2019-05-20T10:18:57.490Z,14.17
2019-05-20T10:21:25.899Z,16.60
2019-05-20T10:23:54.313Z,16.30
2019-05-20T10:26:22.740Z,15.07
2019-05-20T10:28:51.166Z,15.90
2019-05-20T10:31:19.564Z,15.70
2019-05-20T10:33:48.042Z,14.83
2019-05-20T10:36:16.457Z,14.60
2019-05-20T10:38:57.343Z,14.00
2019-05-20T10:41:15.017Z,12.77
2019-05-20T10:43:43.409Z,13.70
2019-05-20T10:46:11.895Z,14.83
2019-05-20T10:48:40.299Z,16.03
2019-05-20T10:51:10.479Z,15.77
2019-05-20T10:53:38.954Z,12.90
2019-05-20T10:56:07.406Z,12.80
2019-05-20T10:58:35.820Z,13.33
2019-05-20T11:01:04.245Z,12.70
2019-05-20T11:03:33.000Z,12.07
2019-05-20T11:06:01.400Z,15.20
2019-05-20T11:08:29.818Z,12.90
2019-05-20T11:10:58.222Z,12.33
2019-05-20T11:13:26.711Z,12.63
2019-05-20T11:15:55.131Z,11.23
2019-05-20T11:18:23.548Z,12.53
2019-05-20T11:20:51.948Z,11.33
2019-05-20T11:23:20.376Z,11.23
2019-05-20T11:25:49.121Z,10.87
2019-05-20T11:28:17.552Z,11.37
2019-05-20T11:30:46.094Z,9.47
2019-05-20T11:33:14.515Z,10.23
2019-05-20T11:35:43.089Z,9.90
2019-05-20T11:38:11.714Z,9.43
2019-05-20T11:40:40.084Z,8.87
2019-05-20T11:43:08.481Z,8.97
2019-05-20T11:45:36.900Z,9.33
2019-05-20T11:48:05.307Z,7.23
2019-05-20T11:50:33.702Z,8.83
2019-05-20T11:53:02.201Z,7.83
2019-05-20T11:55:30.643Z,6.27
2019-05-20T11:58:14.618Z,7.10
2019-05-20T12:00:29.212Z,8.37
2019-05-20T12:02:57.638Z,7.40
2019-05-20T12:05:26.034Z,6.23
2019-05-20T12:07:54.441Z,6.43
2019-05-20T12:10:23.173Z,6.37
2019-05-20T12:12:51.666Z,6.30
2019-05-20T12:15:21.692Z,7.00
2019-05-20T12:17:50.085Z,5.87
2019-05-20T12:20:18.638Z,6.77
2019-05-20T12:22:47.103Z,6.00
2019-05-20T12:25:15.633Z,6.27
2019-05-20T12:27:43.986Z,6.20
2019-05-20T12:30:12.865Z,6.73
2019-05-20T12:32:41.233Z,6.47
2019-05-20T12:35:11.256Z,7.77
2019-05-20T12:37:39.650Z,7.43
2019-05-20T12:40:08.833Z,6.50
2019-05-20T12:42:37.647Z,7.20
2019-05-20T12:45:08.114Z,6.53
2019-05-20T12:47:36.599Z,6.60
2019-05-20T12:50:06.453Z,7.20
2019-05-20T12:52:34.856Z,7.27
2019-05-20T12:55:08.561Z,7.00
2019-05-20T12:57:33.560Z,7.70
2019-05-20T13:00:01.984Z,7.00
2019-05-20T13:02:30.406Z,7.37
2019-05-20T13:04:58.799Z,7.77
2019-05-20T13:07:27.265Z,7.80
2019-05-20T13:09:55.681Z,8.30
2019-05-20T13:12:24.072Z,8.33
2019-05-20T13:14:52.469Z,8.23
2019-05-20T13:17:20.886Z,9.50
2019-05-20T13:19:49.371Z,8.97
2019-05-20T13:22:18.069Z,7.63
2019-05-20T13:24:46.477Z,8.30
2019-05-20T13:27:14.892Z,9.27
2019-05-20T13:29:43.305Z,8.27
2019-05-20T13:32:11.695Z,8.27
2019-05-20T13:34:40.113Z,9.60
2019-05-20T13:37:08.512Z,7.30
2019-05-20T13:39:38.566Z,9.17
2019-05-20T13:42:06.968Z,8.53
2019-05-20T13:44:35.363Z,8.87
2019-05-20T13:47:03.976Z,10.87
2019-05-20T13:49:32.377Z,9.73
2019-05-20T13:52:01.336Z,10.57
2019-05-20T13:54:29.860Z,9.50
2019-05-20T13:56:58.290Z,9.60
2019-05-20T13:59:26.696Z,9.50
2019-05-20T14:01:55.094Z,11.77
2019-05-20T14:04:23.579Z,15.40
2019-05-20T14:06:52.005Z,12.57
2019-05-20T14:09:20.395Z,14.47
2019-05-20T14:11:48.803Z,14.03
2019-05-20T14:14:17.469Z,15.70
2019-05-20T14:16:45.875Z,15.07
2019-05-20T14:19:14.297Z,14.90
2019-05-20T14:21:42.716Z,16.17
2019-05-20T14:24:11.119Z,15.17
2019-05-20T14:26:39.567Z,16.30
2019-05-20T14:29:07.943Z,15.60
2019-05-20T14:31:36.350Z,19.77
2019-05-20T14:34:04.771Z,19.20
2019-05-20T14:36:39.977Z,17.13
2019-05-20T14:39:05.272Z,21.57
2019-05-20T14:41:33.682Z,20.17
2019-05-20T14:44:02.195Z,20.60
2019-05-20T14:46:30.578Z,21.10
2019-05-20T14:49:02.167Z,20.60
2019-05-20T14:51:29.154Z,19.20
2019-05-20T14:53:57.535Z,19.07
2019-05-20T14:56:25.967Z,19.80
2019-05-20T14:58:55.748Z,19.63
2019-05-20T15:01:24.304Z,17.43
2019-05-20T15:03:52.725Z,18.80
2019-05-20T15:06:21.118Z,18.10
2019-05-20T15:08:49.553Z,15.97
2019-05-20T15:11:17.953Z,16.63
2019-05-20T15:13:46.389Z,17.63
2019-05-20T15:16:14.772Z,17.80
2019-05-20T15:18:43.196Z,19.60
2019-05-20T15:21:11.597Z,16.33
2019-05-20T15:23:40.086Z,18.40
2019-05-20T15:26:08.430Z,15.00
2019-05-20T15:28:36.887Z,18.07
2019-05-20T15:31:05.314Z,20.10
2019-05-20T15:33:33.720Z,21.67
2019-05-20T15:36:02.159Z,21.13
2019-05-20T15:38:30.571Z,21.17
2019-05-20T15:40:58.978Z,20.63
2019-05-20T15:43:27.387Z,22.23
2019-05-20T15:45:55.791Z,18.03
2019-05-20T15:48:24.216Z,20.47
2019-05-20T15:50:52.609Z,25.23
2019-05-20T15:53:21.007Z,23.43
2019-05-20T15:55:49.453Z,22.77
2019-05-20T15:58:17.896Z,19.50
2019-05-20T16:00:46.295Z,24.90
2019-05-20T16:03:14.734Z,24.97
2019-05-20T16:05:43.147Z,21.47
2019-05-20T16:08:11.563Z,23.90
2019-05-20T16:10:40.325Z,26.90
2019-05-20T16:13:08.738Z,23.73
2019-05-20T16:15:37.137Z,26.77
2019-05-20T16:18:05.551Z,26.03
2019-05-20T16:20:33.955Z,24.80
2019-05-20T16:23:02.670Z,26.17
2019-05-20T16:25:31.460Z,25.60
2019-05-20T16:27:59.847Z,25.60
2019-05-20T16:30:28.247Z,23.40
2019-05-20T16:32:56.680Z,22.90
2019-05-20T16:35:25.078Z,23.93
2019-05-20T16:37:53.477Z,26.13
2019-05-20T16:40:21.889Z,23.70
2019-05-20T16:42:50.298Z,24.87
2019-05-20T16:45:19.557Z,24.67
2019-05-20T16:47:48.219Z,25.33
2019-05-20T16:50:18.352Z,24.87
2019-05-20T16:52:46.754Z,21.57
2019-05-20T16:55:15.888Z,23.87
2019-05-20T16:57:44.302Z,20.27
2019-05-20T17:00:29.952Z,20.52
2019-05-20T17:02:43.531Z,20.47
2019-05-20T17:05:12.083Z,19.77
2019-05-20T17:07:40.502Z,17.47
2019-05-20T17:10:09.147Z,18.07
2019-05-20T17:12:37.585Z,17.23
2019-05-20T17:15:06.241Z,16.57
2019-05-20T17:17:34.632Z,14.03
2019-05-20T17:20:03.272Z,14.33
2019-05-20T17:22:31.708Z,14.67
2019-05-20T17:25:00.122Z,15.87
2019-05-20T17:27:28.595Z,12.97
2019-05-20T17:29:57.016Z,13.70
2019-05-20T17:32:25.409Z,13.97
2019-05-20T17:34:53.823Z,14.73
2019-05-20T17:37:22.251Z,13.53
2019-05-20T17:39:50.660Z,13.97
2019-05-20T17:42:19.169Z,14.07
2019-05-20T17:44:47.597Z,13.83
2019-05-20T17:47:16.081Z,15.13
2019-05-20T17:49:44.479Z,13.10
2019-05-20T17:52:12.906Z,13.83
2019-05-20T17:54:41.303Z,12.27
2019-05-20T17:57:09.704Z,12.90
2019-05-20T17:59:38.137Z,13.40
2019-05-20T18:02:08.256Z,12.50
2019-05-20T18:04:37.011Z,13.13
2019-05-20T18:07:05.508Z,12.43
2019-05-20T18:09:35.548Z,13.83
2019-05-20T18:12:04.033Z,13.53
2019-05-20T18:14:32.438Z,13.47
2019-05-20T18:17:01.097Z,13.13
2019-05-20T18:19:29.492Z,14.13
2019-05-20T18:21:57.908Z,14.30
2019-05-20T18:24:26.314Z,14.37
2019-05-20T18:26:54.723Z,15.03
2019-05-20T18:29:23.130Z,11.77
2019-05-20T18:31:51.689Z,14.27
2019-05-20T18:34:20.302Z,13.27
2019-05-20T18:36:48.725Z,14.20
2019-05-20T18:39:17.128Z,15.00
2019-05-20T18:41:45.549Z,13.93
2019-05-20T18:44:13.959Z,13.37
2019-05-20T18:46:42.347Z,13.97
2019-05-20T18:49:11.015Z,12.73
2019-05-20T18:51:39.430Z,12.73
2019-05-20T18:54:09.116Z,12.53
2019-05-20T18:56:37.537Z,13.30
2019-05-20T18:59:05.973Z,12.87
2019-05-20T19:01:46.050Z,13.53
2019-05-20T19:04:04.664Z,13.63
2019-05-20T19:06:33.091Z,14.23
2019-05-20T19:09:01.500Z,13.57
2019-05-20T19:11:29.909Z,13.50
2019-05-20T19:13:58.381Z,12.50
2019-05-20T19:16:26.777Z,11.57
2019-05-20T19:18:55.281Z,12.40
2019-05-20T19:21:23.691Z,13.27
2019-05-20T19:23:52.374Z,12.43
2019-05-20T19:26:24.849Z,12.33
2019-05-20T19:28:51.500Z,12.83
2019-05-20T19:31:19.967Z,13.57
2019-05-20T19:33:48.399Z,13.90
2019-05-20T19:36:16.857Z,12.83
2019-05-20T19:38:45.633Z,11.60
2019-05-20T19:41:14.029Z,12.90
2019-05-20T19:43:42.784Z,12.50
2019-05-20T19:46:11.256Z,11.83
2019-05-20T19:48:39.774Z,11.97
2019-05-20T19:51:08.532Z,11.73
2019-05-20T19:53:36.961Z,11.33
2019-05-20T19:56:05.360Z,12.47
2019-05-20T19:58:33.759Z,10.53
2019-05-20T20:01:02.185Z,13.50
2019-05-20T20:03:30.593Z,13.97
2019-05-20T20:05:59.001Z,16.40
2019-05-20T20:08:27.419Z,13.57
2019-05-20T20:10:56.085Z,13.70
2019-05-20T20:13:24.504Z,15.47
2019-05-20T20:15:52.980Z,16.83
2019-05-20T20:18:21.382Z,15.03
2019-05-20T20:20:49.868Z,15.83
2019-05-20T20:23:18.355Z,17.70
2019-05-20T20:25:46.786Z,14.30
2019-05-20T20:28:15.181Z,17.00
2019-05-20T20:30:43.600Z,17.47
2019-05-20T20:33:12.003Z,15.87
2019-05-20T20:35:40.416Z,15.77
2019-05-20T20:38:08.822Z,18.20
2019-05-20T20:40:37.242Z,17.83
2019-05-20T20:43:05.637Z,18.10
2019-05-20T20:45:34.050Z,17.37
2019-05-20T20:48:02.454Z,16.67
2019-05-20T20:50:30.891Z,17.37
2019-05-20T20:52:59.289Z,16.70
2019-05-20T20:55:27.720Z,16.20
2019-05-20T20:57:56.109Z,16.80
2019-05-20T21:00:24.858Z,16.40
2019-05-20T21:02:54.015Z,19.30
2019-05-20T21:05:22.459Z,17.63
2019-05-20T21:07:51.762Z,18.33
2019-05-20T21:10:20.446Z,18.10
2019-05-20T21:12:48.856Z,18.90
2019-05-20T21:15:17.280Z,21.37
2019-05-20T21:17:45.677Z,20.87
2019-05-20T21:20:14.244Z,20.00
2019-05-20T21:22:42.647Z,18.97
2019-05-20T21:25:11.216Z,19.10
2019-05-20T21:27:39.608Z,17.13
2019-05-20T21:30:09.268Z,18.13
2019-05-20T21:32:37.774Z,19.13
2019-05-20T21:35:06.614Z,16.40
2019-05-20T21:37:35.012Z,16.23
2019-05-20T21:40:03.708Z,16.43
2019-05-20T21:42:32.115Z,15.83
2019-05-20T21:45:00.517Z,14.27
2019-05-20T21:47:28.936Z,12.33
2019-05-20T21:49:57.344Z,13.00
2019-05-20T21:52:25.832Z,12.23
2019-05-20T21:54:54.229Z,11.60
2019-05-20T21:57:22.886Z,12.77
2019-05-20T21:59:51.298Z,12.10
2019-05-20T22:02:19.724Z,11.77
2019-05-20T22:04:48.397Z,11.67
2019-05-20T22:07:16.798Z,11.83
2019-05-20T22:09:46.210Z,10.73
2019-05-20T22:12:14.617Z,11.43
2019-05-20T22:14:43.034Z,10.43
2019-05-20T22:17:11.492Z,9.77
2019-05-20T22:19:39.894Z,10.17
2019-05-20T22:22:18.827Z,9.53
2019-05-20T22:24:47.231Z,10.23
2019-05-20T22:27:15.638Z,10.63
2019-05-20T22:29:44.049Z,10.80
2019-05-20T22:32:12.755Z,9.53
2019-05-20T22:34:52.725Z,9.13
2019-05-20T22:37:11.300Z,8.90
2019-05-20T22:39:39.694Z,9.40
2019-05-20T22:42:08.580Z,8.97
2019-05-20T22:44:36.908Z,8.73
2019-05-20T22:47:05.307Z,8.37
2019-05-20T22:49:33.971Z,8.93
2019-05-20T22:52:02.374Z,8.53
2019-05-20T22:54:30.768Z,9.07
2019-05-20T22:56:59.168Z,8.77
2019-05-20T22:59:27.598Z,9.00
2019-05-20T23:01:56.265Z,8.20
2019-05-20T23:04:24.674Z,8.47
2019-05-20T23:06:53.316Z,8.37
2019-05-20T23:09:21.732Z,9.20
2019-05-20T23:11:50.146Z,8.47
2019-05-20T23:14:18.558Z,8.03
2019-05-20T23:16:46.969Z,8.33
2019-05-20T23:19:15.380Z,7.20
2019-05-20T23:21:43.770Z,6.83
2019-05-20T23:24:12.193Z,7.70
2019-05-20T23:26:40.659Z,6.83
2019-05-20T23:29:09.078Z,6.97
2019-05-20T23:31:37.481Z,6.83
2019-05-20T23:34:12.627Z,6.40
2019-05-20T23:36:36.007Z,8.07
2019-05-20T23:39:07.422Z,7.30
2019-05-20T23:41:36.200Z,6.77
2019-05-20T23:44:04.605Z,6.53
2019-05-20T23:46:32.998Z,7.37
2019-05-20T23:49:01.413Z,6.23
2019-05-20T23:51:29.820Z,8.27
2019-05-20T23:53:58.218Z,6.37
2019-05-20T23:56:26.615Z,6.87
2019-05-20T23:58:55.041Z,6.60
